sensor_id;sensor_type;location;lat;lon;timestamp;P1;P2;P0
71858;PMS5003;59713;50.866;4.324;2023-02-14T00:00:27;38;33;
71858;PMS5003;59713;50.866;4.324;2023-02-14T00:01:27;46;36;
71858;PMS5003;59713;50.866;4.324;2023-02-14T00:02:27;46;36;
71858;PMS5003;59713;50.866;4.324;2023-02-14T00:03:27;46;36;
71858;PMS5003;59713;50.866;4.324;2023-02-14T00:04:27;45;37;
71858;PMS5003;59713;50.866;4.324;2023-02-14T00:04:27;45;37;
71858;PMS5003;59713;50.866;4.324;2023-02-14T00:05:27;45;37;
71858;PMS5003;59713;50.866;4.324;2023-02-14T00:06:29;45;37;
71858;PMS5003;59713;50.866;4.324;2023-02-14T00:07:27;46;38;
71858;PMS5003;59713;50.866;4.324;2023-02-14T00:08:27;46;38;
71858;PMS5003;59713;50.866;4.324;2023-02-14T00:09:27;46;38;
71858;PMS5003;59713;50.866;4.324;2023-02-14T00:10:27;45;36;
71858;PMS5003;59713;50.866;4.324;2023-02-14T00:11:27;45;36;
71858;PMS5003;59713;50.866;4.324;2023-02-14T00:12:27;45;36;
71858;PMS5003;59713;50.866;4.324;2023-02-14T00:13:27;48;39;
71858;PMS5003;59713;50.866;4.324;2023-02-14T00:14:27;48;39;
71858;PMS5003;59713;50.866;4.324;2023-02-14T00:14:27;48;39;
71858;PMS5003;59713;50.866;4.324;2023-02-14T00:15:27;48;39;
71858;PMS5003;59713;50.866;4.324;2023-02-14T00:16:27;56;42;
71858;PMS5003;59713;50.866;4.324;2023-02-14T00:17:27;56;42;
71858;PMS5003;59713;50.866;4.324;2023-02-14T00:18:28;56;42;
71858;PMS5003;59713;50.866;4.324;2023-02-14T00:19:27;48;38;
71858;PMS5003;59713;50.866;4.324;2023-02-14T00:20:27;48;38;
71858;PMS5003;59713;50.866;4.324;2023-02-14T00:21:27;48;38;
71858;PMS5003;59713;50.866;4.324;2023-02-14T00:22:27;47;38;
71858;PMS5003;59713;50.866;4.324;2023-02-14T00:23:27;47;38;
71858;PMS5003;59713;50.866;4.324;2023-02-14T00:23:27;47;38;
71858;PMS5003;59713;50.866;4.324;2023-02-14T00:24:27;47;38;
71858;PMS5003;59713;50.866;4.324;2023-02-14T00:25:27;40;35;
71858;PMS5003;59713;50.866;4.324;2023-02-14T00:26:27;40;35;
71858;PMS5003;59713;50.866;4.324;2023-02-14T00:27:27;40;35;
71858;PMS5003;59713;50.866;4.324;2023-02-14T00:28:27;49;39;
71858;PMS5003;59713;50.866;4.324;2023-02-14T00:29:28;49;39;
71858;PMS5003;59713;50.866;4.324;2023-02-14T00:30:27;49;39;
71858;PMS5003;59713;50.866;4.324;2023-02-14T00:31:27;49;38;
71858;PMS5003;59713;50.866;4.324;2023-02-14T00:32:27;49;38;
71858;PMS5003;59713;50.866;4.324;2023-02-14T00:32:27;49;38;
71858;PMS5003;59713;50.866;4.324;2023-02-14T00:33:27;49;38;
71858;PMS5003;59713;50.866;4.324;2023-02-14T00:34:27;51;42;
71858;PMS5003;59713;50.866;4.324;2023-02-14T00:35:27;51;42;
71858;PMS5003;59713;50.866;4.324;2023-02-14T00:36:27;51;42;
71858;PMS5003;59713;50.866;4.324;2023-02-14T00:37:28;47;40;
71858;PMS5003;59713;50.866;4.324;2023-02-14T00:38:28;47;40;
71858;PMS5003;59713;50.866;4.324;2023-02-14T00:39:29;47;40;
71858;PMS5003;59713;50.866;4.324;2023-02-14T00:40:27;50;41;
71858;PMS5003;59713;50.866;4.324;2023-02-14T00:41:27;50;41;
71858;PMS5003;59713;50.866;4.324;2023-02-14T00:41:27;50;41;
71858;PMS5003;59713;50.866;4.324;2023-02-14T00:42:27;50;41;
71858;PMS5003;59713;50.866;4.324;2023-02-14T00:43:27;49;39;
71858;PMS5003;59713;50.866;4.324;2023-02-14T00:44:27;49;39;
71858;PMS5003;59713;50.866;4.324;2023-02-14T00:45:27;49;39;
71858;PMS5003;59713;50.866;4.324;2023-02-14T00:46:27;51;43;
71858;PMS5003;59713;50.866;4.324;2023-02-14T00:47:27;51;43;
71858;PMS5003;59713;50.866;4.324;2023-02-14T00:48:27;51;43;
71858;PMS5003;59713;50.866;4.324;2023-02-14T00:49:27;47;39;
71858;PMS5003;59713;50.866;4.324;2023-02-14T00:50:27;47;39;
71858;PMS5003;59713;50.866;4.324;2023-02-14T00:50:27;47;39;
71858;PMS5003;59713;50.866;4.324;2023-02-14T00:51:28;47;39;
71858;PMS5003;59713;50.866;4.324;2023-02-14T00:52:28;50;41;
71858;PMS5003;59713;50.866;4.324;2023-02-14T00:53:27;50;41;
71858;PMS5003;59713;50.866;4.324;2023-02-14T00:54:27;50;41;
71858;PMS5003;59713;50.866;4.324;2023-02-14T00:55:27;56;43;
71858;PMS5003;59713;50.866;4.324;2023-02-14T00:56:27;56;43;
71858;PMS5003;59713;50.866;4.324;2023-02-14T00:57:27;56;43;
71858;PMS5003;59713;50.866;4.324;2023-02-14T00:58:27;52;43;
71858;PMS5003;59713;50.866;4.324;2023-02-14T00:59:28;52;43;
71858;PMS5003;59713;50.866;4.324;2023-02-14T00:59:28;52;43;
71858;PMS5003;59713;50.866;4.324;2023-02-14T01:00:27;52;43;
71858;PMS5003;59713;50.866;4.324;2023-02-14T01:01:27;53;42;
71858;PMS5003;59713;50.866;4.324;2023-02-14T01:02:27;53;42;
71858;PMS5003;59713;50.866;4.324;2023-02-14T01:03:27;53;42;
71858;PMS5003;59713;50.866;4.324;2023-02-14T01:04:27;49;40;
71858;PMS5003;59713;50.866;4.324;2023-02-14T01:05:27;49;40;
71858;PMS5003;59713;50.866;4.324;2023-02-14T01:06:27;49;40;
71858;PMS5003;59713;50.866;4.324;2023-02-14T01:07:27;49;38;
71858;PMS5003;59713;50.866;4.324;2023-02-14T01:08:27;49;38;
71858;PMS5003;59713;50.866;4.324;2023-02-14T01:08:27;49;38;
71858;PMS5003;59713;50.866;4.324;2023-02-14T01:09:28;49;38;
71858;PMS5003;59713;50.866;4.324;2023-02-14T01:10:27;53;40;
71858;PMS5003;59713;50.866;4.324;2023-02-14T01:11:28;53;40;
71858;PMS5003;59713;50.866;4.324;2023-02-14T01:12:27;53;40;
71858;PMS5003;59713;50.866;4.324;2023-02-14T01:13:27;51;42;
71858;PMS5003;59713;50.866;4.324;2023-02-14T01:14:27;51;42;
71858;PMS5003;59713;50.866;4.324;2023-02-14T01:15:28;51;42;
71858;PMS5003;59713;50.866;4.324;2023-02-14T01:16:28;46;38;
71858;PMS5003;59713;50.866;4.324;2023-02-14T01:17:27;46;38;
71858;PMS5003;59713;50.866;4.324;2023-02-14T01:18:27;46;38;
71858;PMS5003;59713;50.866;4.324;2023-02-14T01:18:27;46;38;
71858;PMS5003;59713;50.866;4.324;2023-02-14T01:19:28;53;42;
71858;PMS5003;59713;50.866;4.324;2023-02-14T01:20:28;53;42;
71858;PMS5003;59713;50.866;4.324;2023-02-14T01:21:29;53;42;
71858;PMS5003;59713;50.866;4.324;2023-02-14T01:22:33;47;39;
71858;PMS5003;59713;50.866;4.324;2023-02-14T01:23:27;47;39;
71858;PMS5003;59713;50.866;4.324;2023-02-14T01:24:28;47;39;
71858;PMS5003;59713;50.866;4.324;2023-02-14T01:25:27;52;41;
71858;PMS5003;59713;50.866;4.324;2023-02-14T01:26:28;52;41;
71858;PMS5003;59713;50.866;4.324;2023-02-14T01:27:27;52;41;
71858;PMS5003;59713;50.866;4.324;2023-02-14T01:27:27;52;41;
71858;PMS5003;59713;50.866;4.324;2023-02-14T01:28:27;52;40;
71858;PMS5003;59713;50.866;4.324;2023-02-14T01:29:28;52;40;
71858;PMS5003;59713;50.866;4.324;2023-02-14T01:30:28;52;40;
71858;PMS5003;59713;50.866;4.324;2023-02-14T01:31:28;47;37;
71858;PMS5003;59713;50.866;4.324;2023-02-14T01:32:29;47;37;
71858;PMS5003;59713;50.866;4.324;2023-02-14T01:33:27;47;37;
71858;PMS5003;59713;50.866;4.324;2023-02-14T01:34:27;53;41;
71858;PMS5003;59713;50.866;4.324;2023-02-14T01:35:27;53;41;
71858;PMS5003;59713;50.866;4.324;2023-02-14T01:36:28;53;41;
71858;PMS5003;59713;50.866;4.324;2023-02-14T01:36:29;53;41;
71858;PMS5003;59713;50.866;4.324;2023-02-14T01:37:28;52;42;
71858;PMS5003;59713;50.866;4.324;2023-02-14T01:38:27;52;42;
71858;PMS5003;59713;50.866;4.324;2023-02-14T01:39:27;52;42;
71858;PMS5003;59713;50.866;4.324;2023-02-14T01:40:27;45;38;
71858;PMS5003;59713;50.866;4.324;2023-02-14T01:41:29;45;38;
71858;PMS5003;59713;50.866;4.324;2023-02-14T01:42:31;45;38;
71858;PMS5003;59713;50.866;4.324;2023-02-14T01:43:27;52;39;
71858;PMS5003;59713;50.866;4.324;2023-02-14T01:45:27;52;39;
71858;PMS5003;59713;50.866;4.324;2023-02-14T01:45:27;52;39;
71858;PMS5003;59713;50.866;4.324;2023-02-14T01:46:28;33;30;
71858;PMS5003;59713;50.866;4.324;2023-02-14T01:47:28;33;30;
71858;PMS5003;59713;50.866;4.324;2023-02-14T01:48:27;33;30;
71858;PMS5003;59713;50.866;4.324;2023-02-14T01:49:28;49;40;
71858;PMS5003;59713;50.866;4.324;2023-02-14T01:50:29;49;40;
71858;PMS5003;59713;50.866;4.324;2023-02-14T01:51:28;49;40;
71858;PMS5003;59713;50.866;4.324;2023-02-14T01:52:29;57;44;
71858;PMS5003;59713;50.866;4.324;2023-02-14T01:53:27;57;44;
71858;PMS5003;59713;50.866;4.324;2023-02-14T01:54:28;57;44;
71858;PMS5003;59713;50.866;4.324;2023-02-14T01:54:28;57;44;
71858;PMS5003;59713;50.866;4.324;2023-02-14T01:55:29;45;35;
71858;PMS5003;59713;50.866;4.324;2023-02-14T01:56:29;45;35;
71858;PMS5003;59713;50.866;4.324;2023-02-14T01:57:29;45;35;
71858;PMS5003;59713;50.866;4.324;2023-02-14T01:58:28;58;46;
71858;PMS5003;59713;50.866;4.324;2023-02-14T01:59:30;58;46;
71858;PMS5003;59713;50.866;4.324;2023-02-14T02:00:28;58;46;
71858;PMS5003;59713;50.866;4.324;2023-02-14T02:01:28;59;44;
71858;PMS5003;59713;50.866;4.324;2023-02-14T02:02:27;59;44;
71858;PMS5003;59713;50.866;4.324;2023-02-14T02:03:29;59;44;
71858;PMS5003;59713;50.866;4.324;2023-02-14T02:03:29;59;44;
71858;PMS5003;59713;50.866;4.324;2023-02-14T02:04:28;56;43;
71858;PMS5003;59713;50.866;4.324;2023-02-14T02:05:28;56;43;
71858;PMS5003;59713;50.866;4.324;2023-02-14T02:06:28;56;43;
71858;PMS5003;59713;50.866;4.324;2023-02-14T02:07:27;57;43;
71858;PMS5003;59713;50.866;4.324;2023-02-14T02:08:27;57;43;
71858;PMS5003;59713;50.866;4.324;2023-02-14T02:09:29;57;43;
71858;PMS5003;59713;50.866;4.324;2023-02-14T02:10:28;50;41;
71858;PMS5003;59713;50.866;4.324;2023-02-14T02:11:27;50;41;
71858;PMS5003;59713;50.866;4.324;2023-02-14T02:12:28;50;41;
71858;PMS5003;59713;50.866;4.324;2023-02-14T02:12:28;50;41;
71858;PMS5003;59713;50.866;4.324;2023-02-14T02:13:27;54;44;
71858;PMS5003;59713;50.866;4.324;2023-02-14T02:14:28;54;44;
71858;PMS5003;59713;50.866;4.324;2023-02-14T02:15:28;54;44;
71858;PMS5003;59713;50.866;4.324;2023-02-14T02:16:40;53;42;
71858;PMS5003;59713;50.866;4.324;2023-02-14T02:17:28;53;42;
71858;PMS5003;59713;50.866;4.324;2023-02-14T02:18:30;53;42;
71858;PMS5003;59713;50.866;4.324;2023-02-14T02:19:36;53;44;
71858;PMS5003;59713;50.866;4.324;2023-02-14T02:20:34;53;44;
71858;PMS5003;59713;50.866;4.324;2023-02-14T02:21:32;53;44;
71858;PMS5003;59713;50.866;4.324;2023-02-14T02:21:33;53;44;
71858;PMS5003;59713;50.866;4.324;2023-02-14T02:22:37;60;46;
71858;PMS5003;59713;50.866;4.324;2023-02-14T02:23:36;60;46;
71858;PMS5003;59713;50.866;4.324;2023-02-14T02:24:30;60;46;
71858;PMS5003;59713;50.866;4.324;2023-02-14T02:25:33;51;41;
71858;PMS5003;59713;50.866;4.324;2023-02-14T02:26:48;51;41;
71858;PMS5003;59713;50.866;4.324;2023-02-14T02:27:41;51;41;
71858;PMS5003;59713;50.866;4.324;2023-02-14T02:28:37;50;42;
71858;PMS5003;59713;50.866;4.324;2023-02-14T02:29:36;50;42;
71858;PMS5003;59713;50.866;4.324;2023-02-14T02:30:33;50;42;
71858;PMS5003;59713;50.866;4.324;2023-02-14T02:30:38;50;42;
71858;PMS5003;59713;50.866;4.324;2023-02-14T02:31:35;49;38;
71858;PMS5003;59713;50.866;4.324;2023-02-14T02:32:33;49;38;
71858;PMS5003;59713;50.866;4.324;2023-02-14T02:33:34;49;38;
71858;PMS5003;59713;50.866;4.324;2023-02-14T02:34:33;57;44;
71858;PMS5003;59713;50.866;4.324;2023-02-14T02:35:32;57;44;
71858;PMS5003;59713;50.866;4.324;2023-02-14T02:36:42;57;44;
71858;PMS5003;59713;50.866;4.324;2023-02-14T02:37:30;46;38;
71858;PMS5003;59713;50.866;4.324;2023-02-14T02:38:32;46;38;
71858;PMS5003;59713;50.866;4.324;2023-02-14T02:39:31;46;38;
71858;PMS5003;59713;50.866;4.324;2023-02-14T02:39:31;46;38;
71858;PMS5003;59713;50.866;4.324;2023-02-14T02:40:30;50;43;
71858;PMS5003;59713;50.866;4.324;2023-02-14T02:41:31;50;43;
71858;PMS5003;59713;50.866;4.324;2023-02-14T02:42:32;50;43;
71858;PMS5003;59713;50.866;4.324;2023-02-14T02:43:29;47;39;
71858;PMS5003;59713;50.866;4.324;2023-02-14T02:44:28;47;39;
71858;PMS5003;59713;50.866;4.324;2023-02-14T02:45:30;47;39;
71858;PMS5003;59713;50.866;4.324;2023-02-14T02:46:30;55;42;
71858;PMS5003;59713;50.866;4.324;2023-02-14T02:47:30;55;42;
71858;PMS5003;59713;50.866;4.324;2023-02-14T02:48:30;55;42;
71858;PMS5003;59713;50.866;4.324;2023-02-14T02:48:30;55;42;
71858;PMS5003;59713;50.866;4.324;2023-02-14T02:49:31;49;39;
71858;PMS5003;59713;50.866;4.324;2023-02-14T02:50:28;49;39;
71858;PMS5003;59713;50.866;4.324;2023-02-14T02:51:31;49;39;
71858;PMS5003;59713;50.866;4.324;2023-02-14T02:52:29;57;46;
71858;PMS5003;59713;50.866;4.324;2023-02-14T02:53:28;57;46;
71858;PMS5003;59713;50.866;4.324;2023-02-14T02:54:29;57;46;
71858;PMS5003;59713;50.866;4.324;2023-02-14T02:55:29;56;46;
71858;PMS5003;59713;50.866;4.324;2023-02-14T02:56:28;56;46;
71858;PMS5003;59713;50.866;4.324;2023-02-14T02:57:28;56;46;
71858;PMS5003;59713;50.866;4.324;2023-02-14T02:58:29;61;45;
71858;PMS5003;59713;50.866;4.324;2023-02-14T02:58:29;61;45;
71858;PMS5003;59713;50.866;4.324;2023-02-14T02:59:28;61;45;
71858;PMS5003;59713;50.866;4.324;2023-02-14T03:00:28;61;45;
71858;PMS5003;59713;50.866;4.324;2023-02-14T03:01:30;53;45;
71858;PMS5003;59713;50.866;4.324;2023-02-14T03:02:28;53;45;
71858;PMS5003;59713;50.866;4.324;2023-02-14T03:03:28;53;45;
71858;PMS5003;59713;50.866;4.324;2023-02-14T03:04:28;62;49;
71858;PMS5003;59713;50.866;4.324;2023-02-14T03:05:29;62;49;
71858;PMS5003;59713;50.866;4.324;2023-02-14T03:06:28;62;49;
71858;PMS5003;59713;50.866;4.324;2023-02-14T03:07:29;64;51;
71858;PMS5003;59713;50.866;4.324;2023-02-14T03:07:29;64;51;
71858;PMS5003;59713;50.866;4.324;2023-02-14T03:08:28;64;51;
71858;PMS5003;59713;50.866;4.324;2023-02-14T03:10:29;56;46;
71858;PMS5003;59713;50.866;4.324;2023-02-14T03:11:28;56;46;
71858;PMS5003;59713;50.866;4.324;2023-02-14T03:12:48;56;46;
71858;PMS5003;59713;50.866;4.324;2023-02-14T03:13:30;57;46;
71858;PMS5003;59713;50.866;4.324;2023-02-14T03:14:29;57;46;
71858;PMS5003;59713;50.866;4.324;2023-02-14T03:15:32;57;46;
71858;PMS5003;59713;50.866;4.324;2023-02-14T03:16:30;62;48;
71858;PMS5003;59713;50.866;4.324;2023-02-14T03:16:30;62;48;
71858;PMS5003;59713;50.866;4.324;2023-02-14T03:17:28;62;48;
71858;PMS5003;59713;50.866;4.324;2023-02-14T03:18:31;62;48;
71858;PMS5003;59713;50.866;4.324;2023-02-14T03:19:30;59;47;
71858;PMS5003;59713;50.866;4.324;2023-02-14T03:20:30;59;47;
71858;PMS5003;59713;50.866;4.324;2023-02-14T03:21:30;59;47;
71858;PMS5003;59713;50.866;4.324;2023-02-14T03:22:32;57;46;
71858;PMS5003;59713;50.866;4.324;2023-02-14T03:23:28;57;46;
71858;PMS5003;59713;50.866;4.324;2023-02-14T03:24:28;57;46;
71858;PMS5003;59713;50.866;4.324;2023-02-14T03:25:30;57;47;
71858;PMS5003;59713;50.866;4.324;2023-02-14T03:26:30;57;47;
71858;PMS5003;59713;50.866;4.324;2023-02-14T03:27:29;57;47;
71858;PMS5003;59713;50.866;4.324;2023-02-14T03:28:29;57;45;
71858;PMS5003;59713;50.866;4.324;2023-02-14T03:29:30;57;45;
71858;PMS5003;59713;50.866;4.324;2023-02-14T03:30:30;57;45;
71858;PMS5003;59713;50.866;4.324;2023-02-14T03:31:29;55;44;
71858;PMS5003;59713;50.866;4.324;2023-02-14T03:32:30;55;44;
71858;PMS5003;59713;50.866;4.324;2023-02-14T03:33:29;55;44;
71858;PMS5003;59713;50.866;4.324;2023-02-14T03:34:29;56;46;
71858;PMS5003;59713;50.866;4.324;2023-02-14T03:35:28;56;46;
71858;PMS5003;59713;50.866;4.324;2023-02-14T03:35:29;56;46;
71858;PMS5003;59713;50.866;4.324;2023-02-14T03:36:29;56;46;
71858;PMS5003;59713;50.866;4.324;2023-02-14T03:37:28;52;42;
71858;PMS5003;59713;50.866;4.324;2023-02-14T03:38:29;52;42;
71858;PMS5003;59713;50.866;4.324;2023-02-14T03:39:29;52;42;
71858;PMS5003;59713;50.866;4.324;2023-02-14T03:40:29;58;46;
71858;PMS5003;59713;50.866;4.324;2023-02-14T03:41:28;58;46;
71858;PMS5003;59713;50.866;4.324;2023-02-14T03:42:29;58;46;
71858;PMS5003;59713;50.866;4.324;2023-02-14T03:43:29;55;43;
71858;PMS5003;59713;50.866;4.324;2023-02-14T03:44:28;55;43;
71858;PMS5003;59713;50.866;4.324;2023-02-14T03:44:28;55;43;
71858;PMS5003;59713;50.866;4.324;2023-02-14T03:45:31;55;43;
71858;PMS5003;59713;50.866;4.324;2023-02-14T03:46:29;57;46;
71858;PMS5003;59713;50.866;4.324;2023-02-14T03:47:29;57;46;
71858;PMS5003;59713;50.866;4.324;2023-02-14T03:48:28;57;46;
71858;PMS5003;59713;50.866;4.324;2023-02-14T03:49:28;53;43;
71858;PMS5003;59713;50.866;4.324;2023-02-14T03:50:28;53;43;
71858;PMS5003;59713;50.866;4.324;2023-02-14T03:51:28;53;43;
71858;PMS5003;59713;50.866;4.324;2023-02-14T03:52:28;55;44;
71858;PMS5003;59713;50.866;4.324;2023-02-14T03:53:28;55;44;
71858;PMS5003;59713;50.866;4.324;2023-02-14T03:54:28;55;44;
71858;PMS5003;59713;50.866;4.324;2023-02-14T03:54:28;55;44;
71858;PMS5003;59713;50.866;4.324;2023-02-14T03:55:30;56;46;
71858;PMS5003;59713;50.866;4.324;2023-02-14T03:56:29;56;46;
71858;PMS5003;59713;50.866;4.324;2023-02-14T03:57:29;56;46;
71858;PMS5003;59713;50.866;4.324;2023-02-14T03:58:29;52;40;
71858;PMS5003;59713;50.866;4.324;2023-02-14T03:59:28;52;40;
71858;PMS5003;59713;50.866;4.324;2023-02-14T04:00:28;52;40;
71858;PMS5003;59713;50.866;4.324;2023-02-14T04:01:29;47;38;
71858;PMS5003;59713;50.866;4.324;2023-02-14T04:02:28;47;38;
71858;PMS5003;59713;50.866;4.324;2023-02-14T04:03:28;47;38;
71858;PMS5003;59713;50.866;4.324;2023-02-14T04:03:28;47;38;
71858;PMS5003;59713;50.866;4.324;2023-02-14T04:04:30;50;39;
71858;PMS5003;59713;50.866;4.324;2023-02-14T04:05:28;50;39;
71858;PMS5003;59713;50.866;4.324;2023-02-14T04:06:28;50;39;
71858;PMS5003;59713;50.866;4.324;2023-02-14T04:07:28;48;40;
71858;PMS5003;59713;50.866;4.324;2023-02-14T04:08:28;48;40;
71858;PMS5003;59713;50.866;4.324;2023-02-14T04:09:28;48;40;
71858;PMS5003;59713;50.866;4.324;2023-02-14T04:10:28;47;40;
71858;PMS5003;59713;50.866;4.324;2023-02-14T04:11:28;47;40;
71858;PMS5003;59713;50.866;4.324;2023-02-14T04:12:28;47;40;
71858;PMS5003;59713;50.866;4.324;2023-02-14T04:12:28;47;40;
71858;PMS5003;59713;50.866;4.324;2023-02-14T04:13:28;48;39;
71858;PMS5003;59713;50.866;4.324;2023-02-14T04:14:28;48;39;
71858;PMS5003;59713;50.866;4.324;2023-02-14T04:15:28;48;39;
71858;PMS5003;59713;50.866;4.324;2023-02-14T04:16:28;50;37;
71858;PMS5003;59713;50.866;4.324;2023-02-14T04:17:28;50;37;
71858;PMS5003;59713;50.866;4.324;2023-02-14T04:18:28;50;37;
71858;PMS5003;59713;50.866;4.324;2023-02-14T04:19:29;53;42;
71858;PMS5003;59713;50.866;4.324;2023-02-14T04:20:30;53;42;
71858;PMS5003;59713;50.866;4.324;2023-02-14T04:21:28;53;42;
71858;PMS5003;59713;50.866;4.324;2023-02-14T04:22:28;50;40;
71858;PMS5003;59713;50.866;4.324;2023-02-14T04:22:28;50;40;
71858;PMS5003;59713;50.866;4.324;2023-02-14T04:23:28;50;40;
71858;PMS5003;59713;50.866;4.324;2023-02-14T04:24:28;50;40;
71858;PMS5003;59713;50.866;4.324;2023-02-14T04:25:28;53;41;
71858;PMS5003;59713;50.866;4.324;2023-02-14T04:26:28;53;41;
71858;PMS5003;59713;50.866;4.324;2023-02-14T04:27:28;53;41;
71858;PMS5003;59713;50.866;4.324;2023-02-14T04:28:28;48;39;
71858;PMS5003;59713;50.866;4.324;2023-02-14T04:29:28;48;39;
71858;PMS5003;59713;50.866;4.324;2023-02-14T04:30:28;48;39;
71858;PMS5003;59713;50.866;4.324;2023-02-14T04:31:28;49;40;
71858;PMS5003;59713;50.866;4.324;2023-02-14T04:32:28;49;40;
71858;PMS5003;59713;50.866;4.324;2023-02-14T04:32:28;49;40;
71858;PMS5003;59713;50.866;4.324;2023-02-14T04:33:28;49;40;
71858;PMS5003;59713;50.866;4.324;2023-02-14T04:34:28;46;39;
71858;PMS5003;59713;50.866;4.324;2023-02-14T04:35:28;46;39;
71858;PMS5003;59713;50.866;4.324;2023-02-14T04:36:28;46;39;
71858;PMS5003;59713;50.866;4.324;2023-02-14T04:37:28;45;37;
71858;PMS5003;59713;50.866;4.324;2023-02-14T04:38:28;45;37;
71858;PMS5003;59713;50.866;4.324;2023-02-14T04:39:28;45;37;
71858;PMS5003;59713;50.866;4.324;2023-02-14T04:40:28;46;37;
71858;PMS5003;59713;50.866;4.324;2023-02-14T04:41:28;46;37;
71858;PMS5003;59713;50.866;4.324;2023-02-14T04:41:28;46;37;
71858;PMS5003;59713;50.866;4.324;2023-02-14T04:42:28;46;37;
71858;PMS5003;59713;50.866;4.324;2023-02-14T04:43:28;45;37;
71858;PMS5003;59713;50.866;4.324;2023-02-14T04:44:28;45;37;
71858;PMS5003;59713;50.866;4.324;2023-02-14T04:45:28;45;37;
71858;PMS5003;59713;50.866;4.324;2023-02-14T04:46:28;52;40;
71858;PMS5003;59713;50.866;4.324;2023-02-14T04:47:28;52;40;
71858;PMS5003;59713;50.866;4.324;2023-02-14T04:48:28;52;40;
71858;PMS5003;59713;50.866;4.324;2023-02-14T04:49:28;50;38;
71858;PMS5003;59713;50.866;4.324;2023-02-14T04:50:28;50;38;
71858;PMS5003;59713;50.866;4.324;2023-02-14T04:51:28;50;38;
71858;PMS5003;59713;50.866;4.324;2023-02-14T04:51:28;50;38;
71858;PMS5003;59713;50.866;4.324;2023-02-14T04:52:28;47;39;
71858;PMS5003;59713;50.866;4.324;2023-02-14T04:53:28;47;39;
71858;PMS5003;59713;50.866;4.324;2023-02-14T04:54:28;47;39;
71858;PMS5003;59713;50.866;4.324;2023-02-14T04:55:28;50;41;
71858;PMS5003;59713;50.866;4.324;2023-02-14T04:56:28;50;41;
71858;PMS5003;59713;50.866;4.324;2023-02-14T04:57:28;50;41;
71858;PMS5003;59713;50.866;4.324;2023-02-14T04:58:28;42;34;
71858;PMS5003;59713;50.866;4.324;2023-02-14T04:59:28;42;34;
71858;PMS5003;59713;50.866;4.324;2023-02-14T05:00:28;42;34;
71858;PMS5003;59713;50.866;4.324;2023-02-14T05:00:28;42;34;
71858;PMS5003;59713;50.866;4.324;2023-02-14T05:01:28;50;40;
71858;PMS5003;59713;50.866;4.324;2023-02-14T05:02:28;50;40;
71858;PMS5003;59713;50.866;4.324;2023-02-14T05:03:28;50;40;
71858;PMS5003;59713;50.866;4.324;2023-02-14T05:04:28;43;35;
71858;PMS5003;59713;50.866;4.324;2023-02-14T05:05:28;43;35;
71858;PMS5003;59713;50.866;4.324;2023-02-14T05:06:28;43;35;
71858;PMS5003;59713;50.866;4.324;2023-02-14T05:07:28;49;36;
71858;PMS5003;59713;50.866;4.324;2023-02-14T05:08:28;49;36;
71858;PMS5003;59713;50.866;4.324;2023-02-14T05:09:28;49;36;
71858;PMS5003;59713;50.866;4.324;2023-02-14T05:09:28;49;36;
71858;PMS5003;59713;50.866;4.324;2023-02-14T05:10:28;49;39;
71858;PMS5003;59713;50.866;4.324;2023-02-14T05:11:28;49;39;
71858;PMS5003;59713;50.866;4.324;2023-02-14T05:12:28;49;39;
71858;PMS5003;59713;50.866;4.324;2023-02-14T05:13:29;48;39;
71858;PMS5003;59713;50.866;4.324;2023-02-14T05:14:28;48;39;
71858;PMS5003;59713;50.866;4.324;2023-02-14T05:15:28;48;39;
71858;PMS5003;59713;50.866;4.324;2023-02-14T05:16:28;47;39;
71858;PMS5003;59713;50.866;4.324;2023-02-14T05:17:28;47;39;
71858;PMS5003;59713;50.866;4.324;2023-02-14T05:18:28;47;39;
71858;PMS5003;59713;50.866;4.324;2023-02-14T05:19:28;49;39;
71858;PMS5003;59713;50.866;4.324;2023-02-14T05:19:28;49;39;
71858;PMS5003;59713;50.866;4.324;2023-02-14T05:20:28;49;39;
71858;PMS5003;59713;50.866;4.324;2023-02-14T05:21:28;49;39;
71858;PMS5003;59713;50.866;4.324;2023-02-14T05:22:28;42;36;
71858;PMS5003;59713;50.866;4.324;2023-02-14T05:23:28;42;36;
71858;PMS5003;59713;50.866;4.324;2023-02-14T05:24:28;42;36;
71858;PMS5003;59713;50.866;4.324;2023-02-14T05:25:28;50;38;
71858;PMS5003;59713;50.866;4.324;2023-02-14T05:26:28;50;38;
71858;PMS5003;59713;50.866;4.324;2023-02-14T05:27:28;50;38;
71858;PMS5003;59713;50.866;4.324;2023-02-14T05:28:28;44;37;
71858;PMS5003;59713;50.866;4.324;2023-02-14T05:28:28;44;37;
71858;PMS5003;59713;50.866;4.324;2023-02-14T05:29:28;44;37;
71858;PMS5003;59713;50.866;4.324;2023-02-14T05:30:28;44;37;
71858;PMS5003;59713;50.866;4.324;2023-02-14T05:31:28;41;34;
71858;PMS5003;59713;50.866;4.324;2023-02-14T05:32:28;41;34;
71858;PMS5003;59713;50.866;4.324;2023-02-14T05:33:28;41;34;
71858;PMS5003;59713;50.866;4.324;2023-02-14T05:34:28;45;38;
71858;PMS5003;59713;50.866;4.324;2023-02-14T05:35:28;45;38;
71858;PMS5003;59713;50.866;4.324;2023-02-14T05:36:28;45;38;
71858;PMS5003;59713;50.866;4.324;2023-02-14T05:37:28;47;39;
71858;PMS5003;59713;50.866;4.324;2023-02-14T05:38:28;47;39;
71858;PMS5003;59713;50.866;4.324;2023-02-14T05:38:28;47;39;
71858;PMS5003;59713;50.866;4.324;2023-02-14T05:39:28;47;39;
71858;PMS5003;59713;50.866;4.324;2023-02-14T05:40:28;47;38;
71858;PMS5003;59713;50.866;4.324;2023-02-14T05:41:28;47;38;
71858;PMS5003;59713;50.866;4.324;2023-02-14T05:42:28;47;38;
71858;PMS5003;59713;50.866;4.324;2023-02-14T05:43:28;51;40;
71858;PMS5003;59713;50.866;4.324;2023-02-14T05:44:28;51;40;
71858;PMS5003;59713;50.866;4.324;2023-02-14T05:45:28;51;40;
71858;PMS5003;59713;50.866;4.324;2023-02-14T05:46:28;47;39;
71858;PMS5003;59713;50.866;4.324;2023-02-14T05:47:29;47;39;
71858;PMS5003;59713;50.866;4.324;2023-02-14T05:47:29;47;39;
71858;PMS5003;59713;50.866;4.324;2023-02-14T05:48:28;47;39;
71858;PMS5003;59713;50.866;4.324;2023-02-14T05:49:28;47;39;
71858;PMS5003;59713;50.866;4.324;2023-02-14T05:50:28;47;39;
71858;PMS5003;59713;50.866;4.324;2023-02-14T05:51:28;47;39;
71858;PMS5003;59713;50.866;4.324;2023-02-14T05:52:28;47;39;
71858;PMS5003;59713;50.866;4.324;2023-02-14T05:53:28;47;39;
71858;PMS5003;59713;50.866;4.324;2023-02-14T05:54:28;47;39;
71858;PMS5003;59713;50.866;4.324;2023-02-14T05:55:28;45;36;
71858;PMS5003;59713;50.866;4.324;2023-02-14T05:56:28;45;36;
71858;PMS5003;59713;50.866;4.324;2023-02-14T05:56:28;45;36;
71858;PMS5003;59713;50.866;4.324;2023-02-14T05:57:28;45;36;
71858;PMS5003;59713;50.866;4.324;2023-02-14T05:58:28;17;14;
71858;PMS5003;59713;50.866;4.324;2023-02-14T05:59:28;17;14;
71858;PMS5003;59713;50.866;4.324;2023-02-14T06:00:28;17;14;
71858;PMS5003;59713;50.866;4.324;2023-02-14T06:01:28;42;35;
71858;PMS5003;59713;50.866;4.324;2023-02-14T06:02:28;42;35;